CheckWX is a tool to help pilots better visualize weather data.  It is not intended as a substitute for an official pre-flight weather briefing.

00:21:54 UTC

FGBT TAF
Bata Airport
Equatorial Guinea
TAF FGBT 270500Z 2706/2806 22006KT SCT010 FEW020CB PROB30 TEMPO 2711/2714 4500 TSRA BKN010 FEW020CB

May-27@
06:00 UTC

May-27 @ 06:00 UTC

May-28@
06:00 UTC

May-28 @ 06:00 UTC

TAF FGBT 270500Z 2706/2806 22006KT SCT010 FEW020CB
Wind
  • 220° at 6 KTS
Cloud Levels
  • Scattered at 1,000' AGL
  • Few at 2,000' AGL

May-27@
11:00 UTC

May-27 @ 11:00 UTC

May-27@
14:00 UTC

May-27 @ 14:00 UTC

PROB30 TEMPO 2711/2714 4500 TSRA BKN010 FEW020CB

Expired

Conditions
Thunderstorm, Rain
Cloud Levels
  • Broken at 1,000' AGL
  • Few at 2,000' AGL